createdAt,value
2017-10-10T00:01:36.103Z,10.80
2017-10-10T00:04:03.595Z,13.97
2017-10-10T00:06:31.043Z,15.10
2017-10-10T00:08:58.523Z,12.50
2017-10-10T00:11:25.978Z,9.40
2017-10-10T00:13:53.447Z,13.47
2017-10-10T00:16:21.691Z,13.10
2017-10-10T00:18:49.171Z,11.60
2017-10-10T00:21:16.627Z,14.13
2017-10-10T00:23:44.083Z,12.13
2017-10-10T00:26:11.563Z,11.73
2017-10-10T00:28:39.808Z,12.57
2017-10-10T00:31:07.266Z,9.73
2017-10-10T00:33:34.743Z,15.17
2017-10-10T00:36:02.215Z,15.20
2017-10-10T00:38:30.468Z,12.30
2017-10-10T00:40:57.952Z,12.00
2017-10-10T00:43:26.170Z,13.70
2017-10-10T00:45:53.644Z,14.20
2017-10-10T00:48:21.106Z,13.53
2017-10-10T00:50:48.612Z,10.50
2017-10-10T00:53:16.090Z,12.20
2017-10-10T00:55:43.567Z,10.67
2017-10-10T00:58:11.030Z,14.40
2017-10-10T01:00:38.487Z,12.00
2017-10-10T01:03:05.969Z,15.80
2017-10-10T01:05:34.200Z,14.10
2017-10-10T01:08:01.688Z,16.20
2017-10-10T01:10:29.977Z,17.13
2017-10-10T01:12:58.204Z,15.03
2017-10-10T01:15:25.659Z,13.50
2017-10-10T01:17:53.134Z,15.37
2017-10-10T01:20:20.595Z,14.67
2017-10-10T01:22:48.059Z,15.57
2017-10-10T01:25:15.536Z,14.40
2017-10-10T01:27:43.760Z,14.50
2017-10-10T01:30:11.243Z,12.37
2017-10-10T01:32:38.715Z,15.33
2017-10-10T01:35:06.975Z,16.70
2017-10-10T01:37:34.460Z,13.33
2017-10-10T01:40:02.698Z,13.30
2017-10-10T01:42:30.170Z,15.10
2017-10-10T01:44:57.651Z,14.43
2017-10-10T01:47:25.887Z,24.30
2017-10-10T01:49:53.379Z,15.20
2017-10-10T01:52:20.862Z,19.67
2017-10-10T01:54:48.327Z,13.27
2017-10-10T01:57:15.812Z,17.50
2017-10-10T01:59:43.281Z,15.43
2017-10-10T02:02:11.498Z,14.97
2017-10-10T02:04:38.988Z,19.03
2017-10-10T02:07:06.450Z,15.40
2017-10-10T02:09:33.926Z,15.43
2017-10-10T02:12:01.395Z,19.67
2017-10-10T02:14:29.644Z,13.97
2017-10-10T02:16:57.094Z,15.80
2017-10-10T02:19:24.573Z,20.03
2017-10-10T02:21:52.031Z,16.90
2017-10-10T02:24:19.490Z,18.07
2017-10-10T02:26:47.734Z,16.10
2017-10-10T02:29:15.199Z,17.47
2017-10-10T02:31:43.431Z,18.83
2017-10-10T02:34:10.906Z,17.17
2017-10-10T02:36:38.375Z,19.20
2017-10-10T02:39:05.843Z,20.10
2017-10-10T02:41:33.321Z,20.60
2017-10-10T02:44:01.551Z,19.30
2017-10-10T02:46:29.031Z,16.80
2017-10-10T02:48:56.494Z,21.40
2017-10-10T02:51:23.958Z,18.80
2017-10-10T02:53:51.451Z,22.03
2017-10-10T02:56:18.915Z,19.47
2017-10-10T02:58:46.375Z,19.90
2017-10-10T03:01:13.858Z,24.27
2017-10-10T03:03:41.323Z,20.60
2017-10-10T03:06:08.803Z,19.20
2017-10-10T03:08:36.267Z,17.17
2017-10-10T03:11:04.508Z,26.77
2017-10-10T03:13:31.991Z,21.93
2017-10-10T03:15:59.472Z,20.17
2017-10-10T03:18:27.711Z,18.63
2017-10-10T03:20:55.195Z,22.90
2017-10-10T03:23:23.443Z,28.57
2017-10-10T03:25:51.783Z,22.50
2017-10-10T03:28:19.239Z,20.50
2017-10-10T03:30:46.705Z,22.20
2017-10-10T03:33:14.179Z,21.60
2017-10-10T03:35:41.699Z,23.83
2017-10-10T03:38:09.167Z,24.10
2017-10-10T03:40:36.627Z,26.43
2017-10-10T03:43:04.115Z,24.23
2017-10-10T03:45:31.579Z,25.93
2017-10-10T03:47:59.043Z,26.43
2017-10-10T03:50:26.555Z,26.20
2017-10-10T03:52:53.999Z,28.50
2017-10-10T03:55:21.480Z,26.03
2017-10-10T03:57:48.954Z,33.30
2017-10-10T04:00:16.415Z,24.87
2017-10-10T04:02:43.882Z,28.00
2017-10-10T04:05:12.185Z,28.77
2017-10-10T04:07:39.666Z,27.33
2017-10-10T04:10:07.126Z,28.03
2017-10-10T04:12:34.592Z,27.00
2017-10-10T04:15:02.076Z,28.43
2017-10-10T04:17:29.546Z,30.87
2017-10-10T04:19:58.247Z,30.23
2017-10-10T04:22:26.474Z,30.90
2017-10-10T04:24:53.950Z,30.87
2017-10-10T04:27:21.420Z,33.73
2017-10-10T04:29:49.726Z,30.87
2017-10-10T04:32:17.255Z,32.40
2017-10-10T04:34:45.500Z,33.87
2017-10-10T04:37:12.974Z,29.10
2017-10-10T04:39:40.476Z,36.50
2017-10-10T04:42:07.926Z,35.30
2017-10-10T04:44:35.407Z,30.57
2017-10-10T04:47:02.860Z,32.50
2017-10-10T04:49:30.355Z,30.67
2017-10-10T04:51:57.822Z,32.07
2017-10-10T04:54:26.069Z,36.30
2017-10-10T04:56:53.535Z,38.00
2017-10-10T04:59:21.007Z,29.60
2017-10-10T05:01:49.254Z,35.37
2017-10-10T05:04:16.726Z,29.43
2017-10-10T05:06:44.214Z,33.33
2017-10-10T05:09:12.439Z,37.47
2017-10-10T05:11:39.911Z,32.73
2017-10-10T05:14:07.396Z,33.93
2017-10-10T05:16:35.623Z,38.73
2017-10-10T05:19:03.099Z,35.93
2017-10-10T05:21:30.562Z,35.90
2017-10-10T05:23:58.053Z,37.67
2017-10-10T05:26:25.519Z,42.67
2017-10-10T05:28:52.995Z,42.57
2017-10-10T05:31:20.478Z,44.70
2017-10-10T05:33:47.947Z,45.90
2017-10-10T05:36:16.170Z,44.30
2017-10-10T05:38:43.646Z,44.50
2017-10-10T05:41:11.116Z,41.90
2017-10-10T05:43:38.604Z,47.20
2017-10-10T05:46:06.830Z,44.67
2017-10-10T05:48:34.311Z,43.47
2017-10-10T05:51:01.772Z,47.93
2017-10-10T05:53:29.283Z,52.50
2017-10-10T05:55:56.774Z,50.37
2017-10-10T05:58:24.297Z,49.00
2017-10-10T06:00:51.765Z,52.37
2017-10-10T06:03:19.252Z,62.57
2017-10-10T06:05:46.706Z,59.30
2017-10-10T06:08:14.193Z,53.60
2017-10-10T06:10:42.419Z,64.50
2017-10-10T06:13:09.887Z,62.70
2017-10-10T06:15:37.375Z,55.57
2017-10-10T06:18:05.610Z,58.97
2017-10-10T06:20:33.091Z,66.77
2017-10-10T06:23:00.555Z,59.90
2017-10-10T06:25:28.020Z,64.07
2017-10-10T06:27:56.263Z,61.53
2017-10-10T06:30:23.724Z,62.60
2017-10-10T06:32:51.207Z,59.80
2017-10-10T06:35:19.447Z,63.67
2017-10-10T06:37:46.907Z,63.80
2017-10-10T06:40:14.390Z,71.13
2017-10-10T06:42:41.868Z,56.97
2017-10-10T06:45:10.095Z,59.50
2017-10-10T06:47:37.584Z,59.60
2017-10-10T06:50:05.043Z,59.83
2017-10-10T06:52:33.268Z,63.17
2017-10-10T06:55:00.749Z,57.10
2017-10-10T06:57:28.204Z,59.33
2017-10-10T06:59:55.687Z,54.47
2017-10-10T07:02:23.915Z,49.10
2017-10-10T07:04:51.392Z,56.27
2017-10-10T07:07:18.860Z,51.97
2017-10-10T07:09:47.845Z,56.27
2017-10-10T07:12:15.309Z,49.30
2017-10-10T07:14:43.591Z,52.70
2017-10-10T07:17:11.835Z,48.83
2017-10-10T07:19:39.310Z,50.03
2017-10-10T07:22:06.793Z,52.53
2017-10-10T07:24:35.015Z,59.90
2017-10-10T07:27:02.520Z,51.50
2017-10-10T07:29:30.763Z,51.07
2017-10-10T07:31:58.282Z,49.53
2017-10-10T07:34:25.731Z,53.30
2017-10-10T07:36:53.212Z,52.43
2017-10-10T07:39:20.679Z,52.50
2017-10-10T07:41:48.210Z,54.30
2017-10-10T07:44:15.687Z,49.30
2017-10-10T07:46:43.170Z,50.50
2017-10-10T07:49:10.651Z,44.97
2017-10-10T07:51:38.884Z,50.30
2017-10-10T07:54:06.363Z,48.43
2017-10-10T07:56:33.824Z,50.53
2017-10-10T07:59:01.282Z,48.73
2017-10-10T08:01:29.529Z,46.07
2017-10-10T08:03:56.991Z,47.13
2017-10-10T08:06:24.452Z,48.60
2017-10-10T08:08:51.930Z,46.13
2017-10-10T08:11:20.171Z,48.80
2017-10-10T08:13:47.654Z,47.00
2017-10-10T08:16:15.127Z,46.63
2017-10-10T08:18:43.358Z,44.60
2017-10-10T08:21:10.849Z,44.77
2017-10-10T08:23:38.315Z,48.10
2017-10-10T08:26:05.806Z,39.27
2017-10-10T08:28:33.280Z,35.37
2017-10-10T08:31:01.520Z,38.80
2017-10-10T08:33:28.999Z,35.30
2017-10-10T08:35:56.455Z,34.80
2017-10-10T08:38:23.932Z,36.20
2017-10-10T08:40:51.388Z,34.20
2017-10-10T08:43:18.854Z,34.13
2017-10-10T08:45:46.323Z,41.23
2017-10-10T08:48:14.551Z,31.40
2017-10-10T08:50:42.026Z,39.50
2017-10-10T08:53:09.488Z,43.00
2017-10-10T08:55:36.948Z,38.73
2017-10-10T08:58:04.427Z,34.80
2017-10-10T09:00:31.895Z,37.57
2017-10-10T09:03:00.135Z,33.50
2017-10-10T09:05:27.596Z,30.63
2017-10-10T09:07:55.855Z,34.60
2017-10-10T09:10:23.320Z,33.70
2017-10-10T09:12:50.806Z,30.83
2017-10-10T09:15:18.292Z,33.10
2017-10-10T09:17:45.771Z,30.53
2017-10-10T09:20:13.232Z,30.63
2017-10-10T09:22:40.710Z,31.57
2017-10-10T09:25:08.180Z,32.80
2017-10-10T09:27:35.649Z,28.93
2017-10-10T09:30:03.120Z,30.67
2017-10-10T09:32:31.368Z,29.50
2017-10-10T09:34:58.832Z,26.70
2017-10-10T09:37:27.079Z,33.60
2017-10-10T09:39:54.543Z,29.10
2017-10-10T09:42:22.015Z,26.50
2017-10-10T09:44:49.492Z,28.60
2017-10-10T09:47:17.731Z,30.60
2017-10-10T09:49:45.192Z,26.40
2017-10-10T09:52:12.660Z,30.17
2017-10-10T09:54:40.135Z,29.00
2017-10-10T09:57:08.385Z,26.57
2017-10-10T09:59:35.855Z,31.23
2017-10-10T10:02:04.087Z,29.67
2017-10-10T10:04:31.559Z,31.57
2017-10-10T10:06:59.035Z,31.60
2017-10-10T10:09:26.507Z,31.10
2017-10-10T10:11:54.747Z,26.27
2017-10-10T10:14:22.211Z,34.33
2017-10-10T10:16:49.712Z,27.70
2017-10-10T10:19:17.180Z,30.63
2017-10-10T10:21:44.656Z,34.50
2017-10-10T10:24:12.133Z,29.23
2017-10-10T10:26:39.611Z,28.13
2017-10-10T10:29:07.083Z,33.57
2017-10-10T10:31:35.311Z,29.40
2017-10-10T10:34:02.795Z,25.93
2017-10-10T10:36:30.255Z,24.90
2017-10-10T10:38:58.492Z,26.30
2017-10-10T10:41:25.971Z,31.60
2017-10-10T10:43:53.435Z,23.17
2017-10-10T10:46:20.896Z,22.10
2017-10-10T10:48:48.371Z,25.20
2017-10-10T10:51:16.607Z,21.87
2017-10-10T10:53:44.095Z,23.60
2017-10-10T10:56:11.586Z,21.10
2017-10-10T10:58:39.040Z,20.47
2017-10-10T11:01:06.525Z,20.60
2017-10-10T11:03:34.007Z,21.43
2017-10-10T11:06:01.495Z,18.90
2017-10-10T11:08:28.951Z,18.33
2017-10-10T11:10:56.444Z,19.40
2017-10-10T11:13:23.923Z,17.40
2017-10-10T11:15:51.396Z,19.60
2017-10-10T11:18:18.879Z,22.60
2017-10-10T11:20:46.358Z,23.37
2017-10-10T11:23:13.844Z,22.30
2017-10-10T11:25:41.314Z,18.40
2017-10-10T11:28:08.782Z,14.33
2017-10-10T11:30:37.041Z,18.17
2017-10-10T11:33:04.507Z,17.60
2017-10-10T11:35:31.971Z,16.93
2017-10-10T11:38:00.215Z,12.10
2017-10-10T11:40:27.688Z,13.47
2017-10-10T11:42:55.156Z,11.30
2017-10-10T11:45:22.636Z,17.40
2017-10-10T11:47:50.099Z,10.43
2017-10-10T11:50:17.579Z,15.70
2017-10-10T11:52:45.047Z,10.57
2017-10-10T11:55:12.509Z,15.10
2017-10-10T11:57:39.982Z,10.57
2017-10-10T12:00:07.459Z,13.67
2017-10-10T12:02:35.694Z,10.10
2017-10-10T12:05:03.160Z,13.27
2017-10-10T12:07:30.635Z,9.67
2017-10-10T12:09:58.095Z,10.60
2017-10-10T12:12:25.571Z,12.17
2017-10-10T12:14:53.051Z,11.73
2017-10-10T12:17:20.518Z,8.50
2017-10-10T12:19:47.988Z,8.47
2017-10-10T12:22:15.440Z,9.93
2017-10-10T12:24:42.918Z,9.07
2017-10-10T12:27:10.378Z,8.63
2017-10-10T12:29:37.843Z,7.93
2017-10-10T12:32:05.330Z,11.00
2017-10-10T12:34:32.824Z,10.13
2017-10-10T12:37:00.294Z,6.60
2017-10-10T12:39:27.754Z,7.87
2017-10-10T12:41:56.724Z,7.80
2017-10-10T12:44:24.191Z,9.60
2017-10-10T12:46:51.652Z,10.87
2017-10-10T12:49:19.135Z,11.67
2017-10-10T12:51:46.612Z,7.00
2017-10-10T12:54:14.858Z,10.33
2017-10-10T12:56:42.332Z,7.43
2017-10-10T12:59:10.552Z,9.57
2017-10-10T13:01:38.040Z,11.87
2017-10-10T13:04:05.496Z,8.10
2017-10-10T13:06:32.972Z,7.47
2017-10-10T13:09:01.216Z,8.43
2017-10-10T13:11:28.692Z,9.57
2017-10-10T13:13:56.147Z,7.00
2017-10-10T13:16:23.611Z,8.40
2017-10-10T13:18:51.071Z,8.30
2017-10-10T13:21:19.312Z,7.10
2017-10-10T13:23:46.779Z,10.70
2017-10-10T13:26:14.241Z,8.87
2017-10-10T13:28:41.715Z,7.77
2017-10-10T13:31:09.938Z,6.70
2017-10-10T13:33:37.411Z,7.53
2017-10-10T13:36:04.884Z,6.40
2017-10-10T13:38:32.343Z,8.20
2017-10-10T13:40:59.803Z,5.80
2017-10-10T13:43:27.276Z,7.40
2017-10-10T13:45:55.913Z,7.43
2017-10-10T13:48:24.218Z,8.90
2017-10-10T13:50:51.866Z,7.53
2017-10-10T13:53:19.632Z,7.53
2017-10-10T13:55:49.350Z,9.87
2017-10-10T13:58:17.113Z,6.57
2017-10-10T14:00:44.679Z,6.30
2017-10-10T14:03:12.958Z,7.87
2017-10-10T14:05:41.270Z,8.57
2017-10-10T14:08:08.837Z,5.93
2017-10-10T14:10:36.327Z,7.07
2017-10-10T14:13:03.795Z,11.30
2017-10-10T14:15:31.270Z,5.90
2017-10-10T14:17:59.498Z,4.87
2017-10-10T14:20:26.983Z,4.80
2017-10-10T14:22:54.435Z,5.37
2017-10-10T14:25:21.891Z,8.10
2017-10-10T14:27:49.386Z,6.43
2017-10-10T14:30:17.739Z,5.43
2017-10-10T14:32:45.190Z,6.10
2017-10-10T14:35:12.682Z,5.20
2017-10-10T14:37:40.184Z,8.73
2017-10-10T14:40:07.646Z,6.47
2017-10-10T14:42:35.115Z,4.37
2017-10-10T14:45:04.095Z,4.83
2017-10-10T14:47:31.555Z,10.67
2017-10-10T14:49:59.020Z,7.17
2017-10-10T14:52:26.487Z,8.00
2017-10-10T14:54:54.743Z,5.77
2017-10-10T14:57:22.201Z,5.27
2017-10-10T14:59:49.697Z,6.73
2017-10-10T15:02:17.916Z,8.60
2017-10-10T15:04:45.450Z,4.20
2017-10-10T15:07:12.944Z,10.10
2017-10-10T15:09:40.416Z,7.30
2017-10-10T15:12:08.329Z,7.70
2017-10-10T15:14:36.319Z,6.13
2017-10-10T15:17:05.193Z,10.13
2017-10-10T15:19:32.871Z,9.27
2017-10-10T15:22:00.762Z,9.17
2017-10-10T15:24:28.345Z,7.80
2017-10-10T15:26:56.593Z,7.60
2017-10-10T15:29:24.079Z,7.63
2017-10-10T15:31:52.333Z,8.40
2017-10-10T15:34:19.909Z,10.43
2017-10-10T15:36:48.171Z,10.97
2017-10-10T15:39:15.627Z,8.53
2017-10-10T15:41:43.125Z,11.27
2017-10-10T15:44:10.690Z,8.10
2017-10-10T15:46:38.166Z,8.40
2017-10-10T15:49:05.639Z,5.93
2017-10-10T15:51:33.112Z,12.63
2017-10-10T15:54:00.607Z,9.47
2017-10-10T15:56:28.084Z,6.07
2017-10-10T15:58:55.592Z,8.10
2017-10-10T16:01:23.815Z,5.47
2017-10-10T16:03:51.307Z,6.60
2017-10-10T16:06:18.755Z,7.33
2017-10-10T16:08:46.994Z,11.97
2017-10-10T16:11:14.474Z,8.37
2017-10-10T16:13:41.948Z,15.27
2017-10-10T16:16:09.411Z,7.13
2017-10-10T16:18:36.894Z,5.67
2017-10-10T16:21:04.355Z,6.93
2017-10-10T16:23:31.822Z,6.20
2017-10-10T16:25:59.334Z,7.57
2017-10-10T16:28:26.874Z,9.30
2017-10-10T16:30:54.463Z,7.23
2017-10-10T16:33:22.738Z,6.70
2017-10-10T16:35:50.306Z,7.57
2017-10-10T16:38:18.273Z,6.03
2017-10-10T16:40:45.889Z,5.73
2017-10-10T16:43:13.681Z,7.00
2017-10-10T16:45:41.200Z,11.20
2017-10-10T16:48:08.689Z,8.77
2017-10-10T16:50:36.224Z,6.60
2017-10-10T16:53:03.876Z,11.20
2017-10-10T16:55:31.529Z,7.57
2017-10-10T16:57:59.124Z,8.13
2017-10-10T17:00:26.722Z,11.33
2017-10-10T17:02:54.334Z,6.37
2017-10-10T17:05:21.929Z,13.47
2017-10-10T17:07:49.664Z,8.53
2017-10-10T17:10:17.508Z,10.60
2017-10-10T17:12:45.040Z,5.93
2017-10-10T17:15:12.512Z,7.57
2017-10-10T17:17:39.972Z,8.93
2017-10-10T17:20:07.434Z,7.60
2017-10-10T17:22:34.920Z,10.20
2017-10-10T17:25:02.384Z,9.23
2017-10-10T17:27:29.856Z,7.93
2017-10-10T17:29:58.108Z,7.93
2017-10-10T17:32:25.587Z,7.70
2017-10-10T17:34:53.830Z,11.57
2017-10-10T17:37:21.310Z,7.83
2017-10-10T17:39:49.575Z,15.63
2017-10-10T17:42:17.030Z,7.73
2017-10-10T17:44:44.541Z,15.57
2017-10-10T17:47:12.010Z,11.33
2017-10-10T17:49:39.567Z,10.27
2017-10-10T17:52:07.044Z,9.90
2017-10-10T17:54:34.530Z,10.73
2017-10-10T17:57:02.142Z,11.30
2017-10-10T17:59:31.071Z,8.53
2017-10-10T18:01:58.764Z,13.30
2017-10-10T18:04:26.263Z,10.83
2017-10-10T18:06:53.735Z,13.27
2017-10-10T18:09:21.228Z,11.27
2017-10-10T18:11:49.496Z,8.70
2017-10-10T18:14:17.770Z,10.00
2017-10-10T18:16:46.079Z,12.10
2017-10-10T18:19:13.560Z,9.83
2017-10-10T18:21:41.050Z,11.60
2017-10-10T18:24:08.722Z,15.60
2017-10-10T18:26:36.238Z,13.50
2017-10-10T18:29:03.832Z,11.57
2017-10-10T18:31:31.336Z,13.27
2017-10-10T18:33:58.888Z,10.00
2017-10-10T18:36:26.376Z,9.83
2017-10-10T18:38:53.853Z,9.03
2017-10-10T18:41:21.321Z,13.50
2017-10-10T18:43:48.869Z,13.47
2017-10-10T18:46:16.532Z,10.87
2017-10-10T18:48:44.065Z,16.33
2017-10-10T18:51:11.735Z,12.47
2017-10-10T18:53:39.214Z,12.00
2017-10-10T18:56:07.465Z,14.50
2017-10-10T18:58:35.072Z,17.23
2017-10-10T19:01:02.592Z,14.83
2017-10-10T19:03:30.090Z,14.87
2017-10-10T19:05:58.393Z,12.70
2017-10-10T19:08:25.958Z,11.83
2017-10-10T19:10:53.619Z,13.20
2017-10-10T19:13:21.122Z,13.87
2017-10-10T19:15:49.593Z,11.27
2017-10-10T19:18:17.847Z,14.90
2017-10-10T19:20:45.380Z,14.33
2017-10-10T19:23:13.295Z,12.97
2017-10-10T19:25:40.841Z,20.23
2017-10-10T19:28:08.334Z,17.60
2017-10-10T19:30:36.152Z,21.90
2017-10-10T19:33:03.634Z,20.47
2017-10-10T19:35:31.901Z,17.00
2017-10-10T19:37:59.439Z,14.93
2017-10-10T19:40:27.023Z,14.03
2017-10-10T19:42:54.692Z,12.40
2017-10-10T19:45:22.254Z,16.20
2017-10-10T19:47:50.028Z,13.43
2017-10-10T19:50:18.339Z,15.93
2017-10-10T19:52:46.065Z,18.30
2017-10-10T19:55:13.544Z,13.83
2017-10-10T19:57:41.028Z,14.40
2017-10-10T20:00:08.510Z,12.20
2017-10-10T20:02:35.987Z,12.40
2017-10-10T20:05:04.240Z,12.50
2017-10-10T20:07:31.726Z,18.23
2017-10-10T20:10:00.506Z,21.83
2017-10-10T20:12:28.003Z,16.70
2017-10-10T20:14:55.475Z,13.90
2017-10-10T20:17:22.939Z,18.90
2017-10-10T20:19:50.432Z,17.40
2017-10-10T20:22:18.667Z,14.50
2017-10-10T20:24:46.156Z,15.33
2017-10-10T20:27:14.423Z,19.40
2017-10-10T20:29:42.671Z,16.17
2017-10-10T20:32:10.158Z,22.63
2017-10-10T20:34:38.472Z,17.40
2017-10-10T20:37:05.944Z,22.67
2017-10-10T20:39:33.427Z,21.63
2017-10-10T20:42:00.904Z,21.70
2017-10-10T20:44:29.147Z,26.03
2017-10-10T20:46:56.618Z,18.10
2017-10-10T20:49:24.093Z,17.60
2017-10-10T20:51:52.314Z,16.97
2017-10-10T20:54:19.815Z,16.50
2017-10-10T20:56:47.274Z,16.60
2017-10-10T20:59:14.762Z,18.33
2017-10-10T21:01:42.238Z,20.30
2017-10-10T21:04:09.702Z,15.87
2017-10-10T21:06:37.179Z,17.93
2017-10-10T21:09:04.639Z,19.57
2017-10-10T21:11:32.100Z,21.57
2017-10-10T21:13:59.632Z,27.63
2017-10-10T21:16:27.115Z,18.13
2017-10-10T21:18:54.603Z,19.70
2017-10-10T21:21:22.828Z,18.63
2017-10-10T21:23:50.306Z,16.27
2017-10-10T21:26:17.780Z,22.47
2017-10-10T21:28:46.006Z,17.70
2017-10-10T21:31:13.482Z,18.90
2017-10-10T21:33:40.951Z,19.13
2017-10-10T21:36:08.445Z,19.00
2017-10-10T21:38:35.927Z,19.77
2017-10-10T21:41:03.407Z,19.13
2017-10-10T21:43:31.293Z,23.23
2017-10-10T21:45:58.759Z,15.40
2017-10-10T21:48:26.247Z,16.03
2017-10-10T21:50:53.748Z,17.97
2017-10-10T21:53:21.230Z,19.10
2017-10-10T21:55:48.712Z,17.30
2017-10-10T21:58:16.192Z,16.23
2017-10-10T22:00:43.647Z,18.33
2017-10-10T22:03:11.146Z,16.80
2017-10-10T22:05:38.595Z,18.40
2017-10-10T22:08:06.085Z,19.57
2017-10-10T22:10:34.323Z,18.27
2017-10-10T22:13:01.810Z,21.90
2017-10-10T22:15:30.033Z,18.20
2017-10-10T22:17:57.515Z,19.30
2017-10-10T22:20:25.010Z,18.10
2017-10-10T22:22:53.228Z,18.83
2017-10-10T22:25:20.703Z,17.83
2017-10-10T22:27:48.184Z,22.17
2017-10-10T22:30:16.410Z,19.37
2017-10-10T22:32:43.903Z,23.27
2017-10-10T22:35:11.402Z,20.57
2017-10-10T22:37:38.867Z,19.40
2017-10-10T22:40:06.336Z,20.00
2017-10-10T22:42:33.801Z,23.30
2017-10-10T22:45:01.287Z,20.93
2017-10-10T22:47:28.755Z,24.53
2017-10-10T22:49:57.003Z,19.23
2017-10-10T22:52:24.486Z,22.93
2017-10-10T22:54:52.732Z,20.13
2017-10-10T22:57:20.189Z,25.60
2017-10-10T22:59:47.646Z,24.50
2017-10-10T23:02:15.134Z,23.40
2017-10-10T23:04:43.365Z,22.40
2017-10-10T23:07:10.844Z,22.90
2017-10-10T23:09:38.318Z,23.03
2017-10-10T23:12:06.547Z,21.80
2017-10-10T23:14:34.026Z,25.13
2017-10-10T23:17:01.490Z,21.10
2017-10-10T23:19:28.962Z,21.57
2017-10-10T23:21:57.211Z,22.20
2017-10-10T23:24:24.675Z,24.20
2017-10-10T23:26:52.168Z,20.23
2017-10-10T23:29:20.390Z,22.43
2017-10-10T23:31:47.863Z,20.67
2017-10-10T23:57:04.335Z,15.57
2017-10-10T23:59:31.811Z,17.63
